Time;durP1;ratioP1;P1;durP2;ratioP2;P2;SDS_P1;SDS_P2;PMS_P1;PMS_P2;Temp;Humidity;BMP_temperature;BMP_pressure;BME280_temperature;BME280_humidity;BME280_pressure;Samples;Min_cycle;Max_cycle;Signal;HPM_P1;HPM_P2
2022/12/15 00:38:41;;;;;;;40.93;31.83;;;1.80;99.90;;;;;;5093286;28;20956;-72
2022/12/15 00:41:06;;;;;;;40.60;31.10;;;1.70;99.90;;;;;;5091623;28;20529;-72
2022/12/15 00:43:34;;;;;;;41.37;30.70;;;1.50;99.90;;;;;;5092939;28;20431;-72
2022/12/15 00:48:45;;;;;;;44.40;31.93;;;1.40;99.90;;;;;;5093435;28;20409;-73
2022/12/15 00:51:11;;;;;;;43.70;32.60;;;1.50;99.90;;;;;;5092960;28;20423;-72
2022/12/15 01:21:01;;;;;;;46.17;32.83;;;1.50;99.90;;;;;;5092653;28;20465;-72
2022/12/15 01:23:27;;;;;;;42.70;30.83;;;1.50;99.90;;;;;;5091182;28;20400;-72
2022/12/15 01:25:53;;;;;;;45.27;32.70;;;1.50;99.90;;;;;;5090940;28;20435;-72
2022/12/15 01:28:20;;;;;;;43.20;30.57;;;1.40;99.90;;;;;;5091008;28;20447;-72
2022/12/15 01:30:46;;;;;;;42.83;31.05;;;1.40;99.90;;;;;;5056233;28;1049812;-72
2022/12/15 01:33:12;;;;;;;38.77;30.37;;;1.60;99.90;;;;;;5093250;28;20213;-72
2022/12/15 01:35:38;;;;;;;46.40;31.57;;;1.70;99.90;;;;;;5060807;28;20929;-72
2022/12/15 01:38:04;;;;;;;43.33;32.50;;;1.70;99.90;;;;;;5052897;28;20401;-72
2022/12/15 01:40:44;;;;;;;37.90;27.87;;;1.70;99.90;;;;;;5053088;28;20923;-71
2022/12/15 01:43:15;;;;;;;40.27;29.40;;;1.10;99.90;;;;;;5066255;28;20162;-72
2022/12/15 01:45:47;;;;;;;41.60;29.63;;;1.10;99.90;;;;;;5072694;28;20416;-73
2022/12/15 01:48:18;;;;;;;41.73;29.87;;;1.30;99.90;;;;;;5073095;28;20404;-74
2022/12/15 01:50:50;;;;;;;43.40;32.23;;;1.40;99.90;;;;;;5073250;28;20427;-72
2022/12/15 01:53:16;;;;;;;43.13;32.43;;;1.40;99.90;;;;;;5072956;28;21022;-71
2022/12/15 01:55:45;;;;;;;44.10;32.43;;;1.10;99.90;;;;;;5072723;28;20434;-72
2022/12/15 01:58:13;;;;;;;43.00;30.37;;;1.30;99.90;;;;;;5071537;28;20412;-73
2022/12/15 02:00:39;;;;;;;44.97;32.33;;;1.50;99.90;;;;;;5072929;28;20794;-72
2022/12/15 02:03:06;;;;;;;45.20;30.83;;;1.50;99.90;;;;;;5071674;28;20412;-73
2022/12/15 02:05:32;;;;;;;44.57;31.67;;;1.50;99.90;;;;;;5073235;28;20208;-72
2022/12/15 02:08:00;;;;;;;48.87;34.57;;;1.40;99.90;;;;;;5072868;28;20903;-73
2022/12/15 02:10:37;;;;;;;45.87;33.77;;;1.40;99.90;;;;;;5072849;28;20432;-73
2022/12/15 02:13:23;;;;;;;42.73;31.57;;;1.20;99.90;;;;;;5081819;28;20439;-72
2022/12/15 02:16:23;;;;;;;49.77;34.87;;;1.40;99.90;;;;;;5092837;28;20394;-73
2022/12/15 02:19:06;;;;;;;41.67;30.50;;;1.40;99.90;;;;;;5090603;28;20470;-73
2022/12/15 02:21:45;;;;;;;46.30;33.60;;;1.40;99.90;;;;;;5091648;28;20415;-73
2022/12/15 02:24:52;;;;;;;45.60;30.93;;;1.50;99.90;;;;;;5092957;28;20387;-73
2022/12/15 02:27:33;;;;;;;44.70;32.30;;;1.70;99.90;;;;;;5079288;28;20787;-73
2022/12/15 02:30:18;;;;;;;44.23;30.30;;;1.60;99.90;;;;;;5093901;28;20987;-72
2022/12/15 02:33:10;;;;;;;50.27;34.57;;;1.10;99.90;;;;;;5094228;28;20879;-72
2022/12/15 02:35:47;;;;;;;42.37;28.03;;;0.90;99.90;;;;;;5088700;28;20959;-71
2022/12/15 02:38:13;;;;;;;47.03;31.63;;;1.00;99.90;;;;;;5094850;28;20385;-72
2022/12/15 02:40:40;;;;;;;46.83;34.77;;;1.20;99.90;;;;;;5095179;28;20423;-72
2022/12/15 02:43:08;;;;;;;44.27;31.67;;;1.40;99.90;;;;;;5094535;28;20173;-71
2022/12/15 02:45:41;;;;;;;51.20;33.30;;;1.60;99.90;;;;;;5096431;28;20414;-70
2022/12/15 02:48:35;;;;;;;46.20;31.83;;;1.50;99.90;;;;;;5096817;28;20402;-72
2022/12/15 02:51:37;;;;;;;48.60;31.40;;;1.20;99.90;;;;;;5096068;28;20487;-73
2022/12/15 02:54:16;;;;;;;44.40;31.00;;;1.10;99.90;;;;;;5096257;28;20383;-73
2022/12/15 02:56:44;;;;;;;44.13;30.27;;;1.10;99.90;;;;;;5094804;28;20418;-73
2022/12/15 02:59:34;;;;;;;43.60;32.10;;;1.20;99.90;;;;;;5094028;28;20414;-73
2022/12/15 03:02:07;;;;;;;45.87;31.00;;;0.90;99.90;;;;;;5054526;28;20425;-72
2022/12/15 03:04:32;;;;;;;42.00;30.27;;;0.90;99.90;;;;;;5055793;28;20393;-73
2022/12/15 03:07:02;;;;;;;48.80;33.40;;;0.90;99.90;;;;;;5055425;28;20410;-73
2022/12/15 03:09:29;;;;;;;53.50;36.60;;;1.00;99.90;;;;;;5055533;28;20655;-72
2022/12/15 03:11:55;;;;;;;46.70;33.90;;;0.90;99.90;;;;;;5055353;28;20437;-72
2022/12/15 03:14:20;;;;;;;50.33;33.73;;;1.10;99.90;;;;;;5055074;28;20462;-73
2022/12/15 03:16:46;;;;;;;46.80;34.07;;;1.20;99.90;;;;;;5055352;28;20636;-73
2022/12/15 03:19:12;;;;;;;42.50;32.00;;;1.40;99.90;;;;;;5053858;28;20626;-73
2022/12/15 03:21:37;;;;;;;51.17;34.20;;;1.40;99.90;;;;;;5053685;28;20182;-71
2022/12/15 03:24:03;;;;;;;41.00;30.20;;;1.20;99.90;;;;;;5055116;28;20179;-73
2022/12/15 03:26:28;;;;;;;43.70;30.63;;;1.10;99.90;;;;;;5053844;28;20201;-73
2022/12/15 03:28:54;;;;;;;52.17;33.50;;;1.10;99.90;;;;;;5054603;28;20224;-73
2022/12/15 03:31:20;;;;;;;44.67;33.17;;;1.20;99.90;;;;;;5090596;28;20567;-74
2022/12/15 03:33:45;;;;;;;49.70;34.93;;;1.30;99.90;;;;;;5095391;28;20529;-74
2022/12/15 03:36:11;;;;;;;51.17;35.10;;;1.00;99.90;;;;;;5095207;28;20169;-74
2022/12/15 03:38:36;;;;;;;47.07;33.47;;;1.00;99.90;;;;;;5095163;28;20161;-74
2022/12/15 03:41:02;;;;;;;51.40;34.93;;;1.20;99.90;;;;;;5078697;28;20189;-74
2022/12/15 03:43:27;;;;;;;51.43;34.70;;;1.20;99.90;;;;;;5073941;28;20172;-74
2022/12/15 03:45:53;;;;;;;45.23;31.80;;;1.20;99.90;;;;;;5095299;28;20174;-74
2022/12/15 03:48:18;;;;;;;51.37;32.87;;;1.30;99.90;;;;;;5095613;28;20213;-74
2022/12/15 03:50:46;;;;;;;48.97;32.03;;;1.30;99.90;;;;;;5095104;28;20277;-73
2022/12/15 03:53:11;;;;;;;47.50;32.07;;;1.00;99.90;;;;;;5086118;28;20185;-73
2022/12/15 03:55:37;;;;;;;49.93;35.10;;;1.00;99.90;;;;;;5093526;28;20477;-74
2022/12/15 03:58:03;;;;;;;43.97;30.70;;;1.00;99.90;;;;;;5093258;28;20161;-74
2022/12/15 04:00:29;;;;;;;48.07;30.17;;;1.30;99.90;;;;;;5094301;28;20688;-74
2022/12/15 04:02:54;;;;;;;42.77;29.93;;;1.30;99.90;;;;;;5094760;28;20657;-74
2022/12/15 04:05:28;;;;;;;40.43;29.10;;;1.30;99.90;;;;;;5094656;28;20431;-74
2022/12/15 04:07:56;;;;;;;45.53;30.60;;;1.20;99.90;;;;;;5093535;28;20204;-74
2022/12/15 04:10:22;;;;;;;45.60;30.43;;;1.00;99.90;;;;;;5094652;28;20454;-74
2022/12/15 04:12:55;;;;;;;49.33;33.60;;;1.20;99.90;;;;;;5093367;28;20473;-74
2022/12/15 04:15:20;;;;;;;44.90;29.77;;;1.40;99.90;;;;;;5094776;28;20724;-74
2022/12/15 04:17:46;;;;;;;50.03;32.20;;;1.40;99.90;;;;;;5096547;28;20940;-74
2022/12/15 04:20:11;;;;;;;37.07;27.97;;;1.40;99.90;;;;;;5096401;28;20173;-73
2022/12/15 04:22:42;;;;;;;41.33;28.83;;;1.40;99.90;;;;;;5095686;28;20193;-74
2022/12/15 05:33:53;;;;;;;45.13;32.47;;;0.90;99.90;;;;;;5094958;28;20896;-74
2022/12/15 05:36:19;;;;;;;45.07;31.27;;;1.20;99.90;;;;;;5094163;28;20398;-74
2022/12/15 05:38:50;;;;;;;47.13;32.27;;;1.40;99.90;;;;;;5093861;28;20776;-74
2022/12/15 05:41:17;;;;;;;57.20;36.70;;;1.50;99.90;;;;;;5084840;28;20182;-74
2022/12/15 05:43:43;;;;;;;46.17;30.77;;;1.60;99.90;;;;;;5074852;28;20548;-74
2022/12/15 05:46:08;;;;;;;48.83;31.93;;;1.60;99.90;;;;;;5094416;28;20837;-74
2022/12/15 05:48:34;;;;;;;45.30;32.10;;;1.70;99.90;;;;;;5094223;28;20170;-74
2022/12/15 05:51:07;;;;;;;45.80;31.70;;;1.80;99.90;;;;;;5086832;28;20683;-74
2022/12/15 05:53:35;;;;;;;51.30;34.13;;;1.80;99.90;;;;;;5073033;28;20174;-74
2022/12/15 05:56:04;;;;;;;47.13;32.80;;;1.90;99.90;;;;;;5072893;28;20812;-71
2022/12/15 05:58:30;;;;;;;45.80;29.87;;;1.80;99.90;;;;;;5072687;28;20380;-74
2022/12/15 06:01:10;;;;;;;45.60;32.13;;;1.70;99.90;;;;;;5072614;28;20446;-74
2022/12/15 06:03:36;;;;;;;45.80;31.67;;;1.80;99.90;;;;;;5073445;28;20430;-74
2022/12/15 06:06:05;;;;;;;48.60;33.33;;;1.90;99.90;;;;;;5072976;28;20902;-73
2022/12/15 06:08:33;;;;;;;44.13;32.10;;;1.80;99.90;;;;;;5072865;28;20404;-73
2022/12/15 06:11:00;;;;;;;48.13;31.17;;;1.70;99.90;;;;;;5072772;28;20460;-74
2022/12/15 06:13:27;;;;;;;52.80;34.20;;;1.60;99.90;;;;;;5079753;28;20821;-72
2022/12/15 06:16:05;;;;;;;45.30;30.73;;;1.70;99.90;;;;;;5095419;28;20410;-75
2022/12/15 06:18:33;;;;;;;42.90;29.60;;;1.70;99.90;;;;;;5097238;28;20383;-73
2022/12/15 06:21:04;;;;;;;43.53;30.60;;;1.70;99.90;;;;;;5096734;28;20949;-74
2022/12/15 06:23:33;;;;;;;45.97;31.67;;;1.90;99.90;;;;;;5086755;28;20777;-74
2022/12/15 06:26:11;;;;;;;49.07;32.13;;;1.90;99.90;;;;;;5069350;28;20919;-72
2022/12/15 06:28:36;;;;;;;42.43;30.57;;;2.00;99.90;;;;;;5096755;28;20387;-72
2022/12/15 06:31:04;;;;;;;41.27;28.10;;;2.00;99.90;;;;;;5096859;28;20438;-74
2022/12/15 06:33:30;;;;;;;41.20;28.80;;;2.00;99.90;;;;;;5096568;28;20624;-74
2022/12/15 06:35:55;;;;;;;42.50;29.17;;;1.90;99.90;;;;;;5096574;28;20448;-74
2022/12/15 06:38:21;;;;;;;42.00;28.37;;;1.90;99.90;;;;;;5096039;28;20164;-74
2022/12/15 06:40:57;;;;;;;46.07;30.53;;;1.90;99.90;;;;;;5094850;28;20200;-74
2022/12/15 06:43:25;;;;;;;42.87;29.60;;;1.90;99.90;;;;;;5094694;28;20263;-74
2022/12/15 06:45:50;;;;;;;44.20;34.07;;;2.00;99.90;;;;;;5094124;28;20465;-74
2022/12/15 06:48:20;;;;;;;44.00;29.60;;;1.90;99.90;;;;;;5096384;28;20431;-74
2022/12/15 06:50:46;;;;;;;47.33;32.07;;;1.90;99.90;;;;;;5094777;28;20192;-72
2022/12/15 06:53:12;;;;;;;40.47;28.67;;;1.90;99.90;;;;;;5096031;28;20447;-74
2022/12/15 06:55:38;;;;;;;40.50;28.70;;;2.00;99.90;;;;;;5094869;28;20169;-74
2022/12/15 06:58:03;;;;;;;39.23;28.60;;;2.10;99.90;;;;;;5096256;28;20397;-73
2022/12/15 07:00:29;;;;;;;44.33;29.53;;;2.10;99.90;;;;;;5093856;28;20552;-74
2022/12/15 07:02:54;;;;;;;38.57;28.80;;;2.10;99.90;;;;;;5094929;28;20177;-73
2022/12/15 07:05:20;;;;;;;39.07;28.57;;;2.10;99.90;;;;;;5095859;28;20166;-74
2022/12/15 07:07:46;;;;;;;43.50;29.87;;;2.10;99.90;;;;;;5095837;28;20171;-73
2022/12/15 07:10:12;;;;;;;42.97;30.53;;;2.10;99.90;;;;;;5096440;28;20542;-73
2022/12/15 07:12:38;;;;;;;46.63;31.10;;;1.90;99.90;;;;;;5096041;28;20534;-74
2022/12/15 07:15:04;;;;;;;42.10;31.10;;;1.90;99.90;;;;;;5095825;28;20161;-74
2022/12/15 07:17:30;;;;;;;40.33;29.83;;;2.00;99.90;;;;;;5095505;28;20444;-72
2022/12/15 07:19:55;;;;;;;39.83;28.60;;;2.00;99.90;;;;;;5096661;28;20787;-73
2022/12/15 07:22:21;;;;;;;47.40;31.83;;;1.90;99.90;;;;;;5096542;28;20165;-73
2022/12/15 07:24:47;;;;;;;56.33;34.57;;;1.40;99.90;;;;;;5095798;28;20643;-70
2022/12/15 07:27:13;;;;;;;51.27;35.47;;;1.40;99.90;;;;;;5095199;28;20169;-72
2022/12/15 07:29:39;;;;;;;48.33;31.53;;;1.50;99.90;;;;;;5095341;28;20240;-72
2022/12/15 07:32:04;;;;;;;46.30;31.37;;;1.60;99.90;;;;;;5095104;28;20481;-74
2022/12/15 07:34:30;;;;;;;46.17;31.80;;;1.80;99.90;;;;;;5095924;28;20173;-73
2022/12/15 07:36:55;;;;;;;41.33;28.73;;;2.00;99.90;;;;;;5095111;28;20169;-72
2022/12/15 07:39:21;;;;;;;44.97;30.90;;;2.20;99.90;;;;;;5095445;28;20311;-73
2022/12/15 07:41:46;;;;;;;41.40;30.20;;;2.10;99.90;;;;;;5095513;28;20189;-72
2022/12/15 07:44:13;;;;;;;43.70;30.00;;;2.10;99.90;;;;;;5093577;28;20362;-74
2022/12/15 07:46:39;;;;;;;45.00;31.50;;;2.20;99.90;;;;;;5079222;28;20573;-74
2022/12/15 07:49:04;;;;;;;44.43;31.17;;;2.20;99.90;;;;;;5075559;28;20461;-71
2022/12/15 07:51:30;;;;;;;51.57;34.90;;;2.10;99.90;;;;;;5075202;28;20325;-74
2022/12/15 07:53:56;;;;;;;46.97;32.00;;;1.90;99.90;;;;;;5068728;28;20594;-73
2022/12/15 07:56:21;;;;;;;44.23;31.80;;;2.00;99.90;;;;;;5075314;28;20177;-72
2022/12/15 07:58:47;;;;;;;48.93;33.03;;;2.10;99.90;;;;;;5074509;28;20198;-73
2022/12/15 08:01:14;;;;;;;45.00;32.77;;;2.10;99.90;;;;;;5074198;28;20193;-73
2022/12/15 08:03:40;;;;;;;45.20;31.43;;;2.20;99.90;;;;;;5075400;28;20158;-75
2022/12/15 08:06:11;;;;;;;41.47;30.70;;;2.00;99.90;;;;;;5074987;28;20396;-77
2022/12/15 08:08:38;;;;;;;43.20;30.27;;;1.70;99.90;;;;;;5074773;28;20392;-72
2022/12/15 08:11:14;;;;;;;41.10;29.40;;;1.60;99.90;;;;;;5075568;28;20412;-74
2022/12/15 08:13:40;;;;;;;45.33;30.77;;;1.80;99.90;;;;;;5076342;28;20430;-76
2022/12/15 08:16:06;;;;;;;48.27;32.50;;;1.70;99.90;;;;;;5074110;28;20418;-72
2022/12/15 08:18:32;;;;;;;48.73;31.57;;;1.80;99.90;;;;;;5076087;28;20425;-72
2022/12/15 08:21:02;;;;;;;46.10;29.47;;;1.90;99.90;;;;;;5075822;28;20319;-72
2022/12/15 08:23:28;;;;;;;45.20;29.17;;;2.10;99.90;;;;;;5075089;28;20169;-73
2022/12/15 08:25:53;;;;;;;40.33;28.20;;;2.10;99.90;;;;;;5074407;28;20400;-76
2022/12/15 08:28:19;;;;;;;49.40;31.70;;;2.10;99.90;;;;;;5073346;28;20173;-72
2022/12/15 08:30:45;;;;;;;48.77;31.30;;;2.00;99.90;;;;;;5071774;28;20282;-71
2022/12/15 08:33:10;;;;;;;48.53;31.10;;;2.10;99.90;;;;;;5074042;28;20501;-71
2022/12/15 08:35:39;;;;;;;43.80;31.23;;;2.10;99.90;;;;;;5074394;28;20177;-73
2022/12/15 08:38:04;;;;;;;46.87;31.07;;;2.00;99.90;;;;;;5073147;28;20162;-72
2022/12/15 08:40:30;;;;;;;46.50;30.93;;;2.10;99.90;;;;;;5073693;28;20431;-73
2022/12/15 08:42:55;;;;;;;41.60;30.60;;;2.30;99.90;;;;;;5073913;28;20644;-73
2022/12/15 08:45:21;;;;;;;45.20;30.57;;;2.50;99.90;;;;;;5082494;28;20204;-72
2022/12/15 08:47:47;;;;;;;43.10;29.20;;;2.50;99.90;;;;;;5093928;28;20168;-73
2022/12/15 08:50:12;;;;;;;40.97;28.83;;;2.30;99.90;;;;;;5093720;28;20264;-73
2022/12/15 08:52:41;;;;;;;42.73;30.80;;;2.40;99.90;;;;;;5094365;28;20531;-73
2022/12/15 08:55:10;;;;;;;46.03;31.37;;;2.40;99.90;;;;;;5095295;28;20165;-72
2022/12/15 08:57:36;;;;;;;45.37;30.07;;;2.20;99.90;;;;;;5095435;28;20410;-71
2022/12/15 09:00:04;;;;;;;43.97;30.10;;;2.40;99.90;;;;;;5094048;28;20498;-73
2022/12/15 09:02:30;;;;;;;41.60;30.87;;;2.70;99.90;;;;;;5093205;28;20457;-73
2022/12/15 09:04:55;;;;;;;49.83;32.70;;;2.70;99.90;;;;;;5094566;28;20439;-73
2022/12/15 09:07:21;;;;;;;43.70;30.50;;;2.50;99.90;;;;;;5094250;28;20165;-74
2022/12/15 09:09:46;;;;;;;55.40;34.63;;;2.30;99.90;;;;;;5094694;28;20257;-74
2022/12/15 09:12:12;;;;;;;42.90;30.33;;;2.20;99.90;;;;;;5095684;28;20181;-74
2022/12/15 09:14:38;;;;;;;41.47;29.40;;;2.10;99.90;;;;;;5094341;28;20161;-72
2022/12/15 09:17:04;;;;;;;43.80;29.47;;;2.00;99.90;;;;;;5092676;28;20410;-72
2022/12/15 09:19:29;;;;;;;47.63;31.63;;;1.90;99.90;;;;;;5093976;28;20182;-75
2022/12/15 09:21:55;;;;;;;55.83;34.07;;;2.30;99.90;;;;;;5092345;28;20236;-74
2022/12/15 09:24:20;;;;;;;49.40;30.37;;;2.60;99.90;;;;;;5091724;28;20176;-75
2022/12/15 09:26:46;;;;;;;50.40;31.17;;;2.60;99.90;;;;;;5095279;28;20335;-73
2022/12/15 09:29:12;;;;;;;46.17;31.87;;;2.60;99.90;;;;;;5093957;28;20176;-72
2022/12/15 09:31:38;;;;;;;44.57;30.80;;;2.70;99.90;;;;;;5092694;28;20188;-71
2022/12/15 09:34:04;;;;;;;44.10;29.73;;;2.70;99.90;;;;;;5091907;28;20260;-73
2022/12/15 09:36:31;;;;;;;48.30;30.97;;;2.40;99.90;;;;;;5093114;28;20486;-71
2022/12/15 09:38:57;;;;;;;41.17;29.33;;;2.30;99.90;;;;;;5091315;28;20627;-70
2022/12/15 09:41:28;;;;;;;40.67;29.07;;;2.70;99.90;;;;;;5093772;28;20904;-71
2022/12/15 09:44:10;;;;;;;45.30;30.77;;;2.80;99.90;;;;;;5093421;28;20384;-70
2022/12/15 09:47:07;;;;;;;45.13;31.53;;;2.60;99.90;;;;;;5064880;28;20393;-71
2022/12/15 09:49:45;;;;;;;44.50;28.50;;;2.10;99.90;;;;;;5053599;28;20517;-72
2022/12/15 09:52:12;;;;;;;42.90;30.00;;;2.10;99.90;;;;;;5056998;28;21008;-73
2022/12/15 09:54:42;;;;;;;37.80;27.77;;;2.30;99.90;;;;;;5056678;28;20907;-72
2022/12/15 09:57:32;;;;;;;40.17;28.60;;;2.00;99.90;;;;;;5057187;28;20408;-71
2022/12/15 10:00:20;;;;;;;46.93;30.80;;;2.30;99.90;;;;;;5056754;28;20428;-74
2022/12/15 10:02:57;;;;;;;42.87;29.57;;;2.00;99.90;;;;;;5081447;28;20759;-72
2022/12/15 10:05:55;;;;;;;47.03;29.50;;;2.40;99.90;;;;;;5095931;28;20415;-74
2022/12/15 10:08:22;;;;;;;45.50;30.00;;;2.50;99.90;;;;;;5096504;28;20480;-72
2022/12/15 10:11:05;;;;;;;44.47;30.30;;;2.60;99.90;;;;;;5096702;28;20561;-71
2022/12/15 10:13:44;;;;;;;46.53;32.00;;;2.80;99.90;;;;;;5096614;28;20437;-72
2022/12/15 10:16:21;;;;;;;42.63;29.23;;;3.00;99.90;;;;;;5096959;28;20383;-74
2022/12/15 10:19:03;;;;;;;42.23;28.20;;;2.50;99.90;;;;;;5097161;28;20382;-71
2022/12/15 10:21:31;;;;;;;43.00;29.00;;;2.00;99.90;;;;;;5095542;28;20419;-72
2022/12/15 10:24:06;;;;;;;37.87;27.67;;;2.30;99.90;;;;;;5094631;28;20447;-73
2022/12/15 10:26:34;;;;;;;40.23;27.00;;;2.30;99.90;;;;;;5095283;28;20402;-72
2022/12/15 10:29:05;;;;;;;36.27;26.07;;;2.40;99.90;;;;;;5096266;28;20407;-71
2022/12/15 10:31:37;;;;;;;41.17;29.87;;;2.10;99.90;;;;;;5096834;28;20433;-72
2022/12/15 10:34:17;;;;;;;47.00;30.07;;;2.10;99.90;;;;;;5096981;28;20399;-72
2022/12/15 10:36:50;;;;;;;42.57;28.70;;;2.20;99.90;;;;;;5096506;28;20437;-72
2022/12/15 10:39:16;;;;;;;41.17;26.33;;;2.30;99.90;;;;;;5094810;28;20419;-71
2022/12/15 10:41:42;;;;;;;43.73;29.63;;;2.00;99.90;;;;;;5096766;28;20813;-73
2022/12/15 10:44:35;;;;;;;41.40;27.33;;;2.10;99.90;;;;;;5096436;28;20172;-74
2022/12/15 10:47:18;;;;;;;43.30;30.40;;;2.40;99.90;;;;;;5096312;28;20422;-71
2022/12/15 10:49:44;;;;;;;41.13;29.53;;;2.70;99.90;;;;;;5096464;28;20496;-72
2022/12/15 10:52:24;;;;;;;44.70;30.50;;;2.80;99.90;;;;;;5095938;28;20447;-71
2022/12/15 10:54:51;;;;;;;45.37;31.67;;;2.70;99.90;;;;;;5096322;28;20153;-71
2022/12/15 10:57:26;;;;;;;40.50;28.43;;;2.70;99.90;;;;;;5095853;28;20799;-72
2022/12/15 10:59:53;;;;;;;43.97;30.83;;;2.90;99.90;;;;;;5095980;28;20939;-72
2022/12/15 11:02:32;;;;;;;35.83;27.20;;;3.00;99.90;;;;;;5094318;28;20468;-72
2022/12/15 11:05:01;;;;;;;49.63;33.07;;;3.00;99.90;;;;;;5096430;28;20739;-72
2022/12/15 11:07:34;;;;;;;40.60;29.20;;;2.80;99.90;;;;;;5096535;28;20430;-71
2022/12/15 11:10:07;;;;;;;45.47;32.77;;;2.80;99.90;;;;;;5094492;28;20442;-73
2022/12/15 11:12:50;;;;;;;41.73;29.10;;;2.90;99.90;;;;;;5095881;28;20436;-72
2022/12/15 11:15:21;;;;;;;41.83;30.13;;;2.90;99.90;;;;;;5096140;28;20380;-73
2022/12/15 11:17:56;;;;;;;49.23;31.00;;;2.60;99.90;;;;;;5095501;28;20404;-73
2022/12/15 11:20:37;;;;;;;46.37;30.60;;;2.70;99.90;;;;;;5095787;28;20451;-72
2022/12/15 11:23:32;;;;;;;41.87;28.97;;;2.70;99.90;;;;;;5094290;28;20917;-73
2022/12/15 11:26:06;;;;;;;41.20;29.27;;;2.80;99.90;;;;;;5091110;28;20403;-73
2022/12/15 11:28:41;;;;;;;43.67;29.97;;;2.70;99.90;;;;;;5095796;28;20874;-71
2022/12/15 11:31:21;;;;;;;38.90;28.20;;;2.60;99.90;;;;;;5096267;28;20461;-72
2022/12/15 11:33:49;;;;;;;40.60;28.60;;;2.70;99.90;;;;;;5095639;28;20423;-73
2022/12/15 11:36:37;;;;;;;41.63;29.23;;;3.00;99.90;;;;;;5095635;28;20456;-73
2022/12/15 11:39:22;;;;;;;44.40;30.13;;;2.60;99.90;;;;;;5094626;28;20387;-72
2022/12/15 11:42:01;;;;;;;43.90;30.93;;;2.80;99.90;;;;;;5071938;28;20392;-69
2022/12/15 11:44:34;;;;;;;53.23;33.13;;;3.20;99.90;;;;;;5074928;28;20381;-71
2022/12/15 11:47:15;;;;;;;49.17;31.60;;;3.00;99.90;;;;;;5073729;28;20397;-72
2022/12/15 11:50:06;;;;;;;41.20;28.10;;;3.20;99.90;;;;;;5073286;28;20457;-71
2022/12/15 11:52:37;;;;;;;41.57;28.67;;;3.30;99.90;;;;;;5054737;28;20429;-74
2022/12/15 11:55:23;;;;;;;42.50;29.53;;;2.90;99.90;;;;;;5091225;28;20510;-71
2022/12/15 11:58:21;;;;;;;41.50;28.67;;;3.20;99.90;;;;;;5095090;28;20440;-73
2022/12/15 12:01:24;;;;;;;42.93;27.77;;;3.00;99.90;;;;;;5094828;28;20443;-74
2022/12/15 12:04:09;;;;;;;39.53;27.87;;;3.00;99.90;;;;;;5093507;28;20491;-74
2022/12/15 12:06:59;;;;;;;44.70;31.03;;;3.10;99.90;;;;;;5094682;28;20471;-73
2022/12/15 12:09:33;;;;;;;43.13;29.77;;;2.90;99.90;;;;;;5094419;28;20871;-72
2022/12/15 12:12:28;;;;;;;44.43;30.97;;;2.90;99.90;;;;;;5094018;28;20536;-72
2022/12/15 12:15:05;;;;;;;41.83;29.60;;;3.00;99.90;;;;;;5094934;28;20470;-72
2022/12/15 12:17:40;;;;;;;41.20;29.07;;;3.10;99.90;;;;;;5093064;28;20431;-73
2022/12/15 12:20:16;;;;;;;39.40;27.57;;;2.80;99.90;;;;;;5094695;28;20429;-72
2022/12/15 12:22:54;;;;;;;38.50;28.00;;;2.80;99.90;;;;;;5094540;28;20388;-72
2022/12/15 12:25:24;;;;;;;38.03;28.57;;;2.50;99.90;;;;;;5092311;28;20423;-72
2022/12/15 12:28:21;;;;;;;36.43;27.77;;;2.70;99.90;;;;;;5094474;28;20893;-72
2022/12/15 12:30:47;;;;;;;44.40;29.20;;;2.70;99.90;;;;;;5093736;28;20469;-72
2022/12/15 12:33:29;;;;;;;40.30;28.10;;;2.80;99.90;;;;;;5094751;28;20526;-72
2022/12/15 12:36:11;;;;;;;42.67;30.13;;;2.80;99.90;;;;;;5094652;28;20383;-74
2022/12/15 12:38:45;;;;;;;40.73;28.77;;;3.00;99.90;;;;;;5093958;28;20372;-73
2022/12/15 12:41:27;;;;;;;36.43;27.00;;;3.20;99.90;;;;;;5094470;28;20464;-73
2022/12/15 12:44:00;;;;;;;44.07;29.93;;;3.50;99.90;;;;;;5094502;28;20379;-72
2022/12/15 12:46:39;;;;;;;40.33;29.03;;;3.60;99.90;;;;;;5094197;28;20508;-72
2022/12/15 12:49:29;;;;;;;36.63;26.70;;;3.50;99.90;;;;;;5093851;28;20375;-72
2022/12/15 12:51:58;;;;;;;36.50;27.60;;;3.50;99.90;;;;;;5094278;28;20845;-73
2022/12/15 12:54:30;;;;;;;40.40;28.70;;;3.80;99.90;;;;;;5092686;28;20460;-73
2022/12/15 12:56:55;;;;;;;42.87;29.77;;;3.90;99.90;;;;;;5093713;28;20438;-73
2022/12/15 12:59:35;;;;;;;40.07;29.80;;;3.60;99.90;;;;;;5091798;28;20474;-73
2022/12/15 13:02:30;;;;;;;39.77;28.23;;;3.20;99.90;;;;;;5094238;28;20245;-73
2022/12/15 13:05:31;;;;;;;43.90;30.07;;;3.50;99.90;;;;;;5093338;28;20533;-73
2022/12/15 13:08:05;;;;;;;41.00;28.37;;;3.60;99.90;;;;;;5094168;28;20379;-72
2022/12/15 13:10:37;;;;;;;42.13;29.93;;;3.50;99.90;;;;;;5092489;28;21039;-72
2022/12/15 13:13:17;;;;;;;40.33;28.90;;;3.50;99.90;;;;;;5092215;28;20478;-72
2022/12/15 13:15:48;;;;;;;38.17;27.83;;;3.90;99.90;;;;;;5094037;28;20411;-71
2022/12/15 13:18:19;;;;;;;41.23;28.47;;;3.90;99.90;;;;;;5093733;28;20408;-73
2022/12/15 13:20:47;;;;;;;42.80;30.83;;;4.00;99.90;;;;;;5093459;28;20464;-72
2022/12/15 13:23:22;;;;;;;42.40;29.60;;;4.10;99.90;;;;;;5093384;28;20411;-73
2022/12/15 13:25:56;;;;;;;37.37;27.47;;;4.10;99.90;;;;;;5091845;28;20414;-72
2022/12/15 13:28:43;;;;;;;40.37;28.77;;;4.10;99.90;;;;;;5093155;28;20920;-73
2022/12/15 13:31:17;;;;;;;37.03;27.47;;;3.50;99.90;;;;;;5093432;28;20948;-73
2022/12/15 13:33:49;;;;;;;40.80;29.80;;;2.90;99.90;;;;;;5083127;28;20451;-71
2022/12/15 13:36:41;;;;;;;44.00;29.50;;;3.20;99.90;;;;;;5073560;28;20766;-71
2022/12/15 13:39:10;;;;;;;39.07;27.57;;;3.40;99.90;;;;;;5086084;28;20484;-72
2022/12/15 13:41:39;;;;;;;40.27;29.53;;;3.30;99.90;;;;;;5093079;28;20399;-71
2022/12/15 13:44:30;;;;;;;43.27;29.70;;;3.00;99.90;;;;;;5093533;28;20486;-72
2022/12/15 13:47:05;;;;;;;40.70;26.50;;;3.10;99.90;;;;;;5063791;28;20405;-72
2022/12/15 13:49:38;;;;;;;36.57;25.33;;;3.00;99.90;;;;;;5073724;28;20416;-71
2022/12/15 13:52:50;;;;;;;35.37;25.53;;;2.60;99.90;;;;;;5076074;28;20447;-71
2022/12/15 13:55:21;;;;;;;35.60;25.90;;;2.60;99.90;;;;;;5082807;28;20407;-71
2022/12/15 13:58:02;;;;;;;37.50;27.03;;;2.70;99.90;;;;;;5093543;28;20426;-70
2022/12/15 14:00:28;;;;;;;35.67;26.53;;;2.90;99.90;;;;;;5093405;28;20416;-71
2022/12/15 14:03:05;;;;;;;39.27;26.50;;;2.90;99.90;;;;;;5092277;28;20403;-73
2022/12/15 14:05:31;;;;;;;38.53;25.20;;;3.10;99.90;;;;;;5093745;28;20966;-74
2022/12/15 14:07:59;;;;;;;34.60;24.57;;;2.90;99.90;;;;;;5092842;28;20403;-75
2022/12/15 14:10:44;;;;;;;35.17;24.10;;;2.90;99.90;;;;;;5093534;28;20208;-72
2022/12/15 14:13:18;;;;;;;33.93;23.47;;;2.70;99.90;;;;;;5093873;28;20449;-73
2022/12/15 14:15:47;;;;;;;36.87;26.43;;;2.80;99.90;;;;;;5090641;28;20437;-71
2022/12/15 14:18:31;;;;;;;36.73;26.83;;;3.00;99.90;;;;;;5093225;28;20395;-73
2022/12/15 14:20:58;;;;;;;43.73;26.00;;;3.20;99.90;;;;;;5093138;28;20431;-72
2022/12/15 14:23:40;;;;;;;39.40;26.10;;;2.90;99.90;;;;;;5092969;28;20453;-73
2022/12/15 14:26:10;;;;;;;38.20;25.63;;;2.80;99.90;;;;;;5052250;28;20403;-71
2022/12/15 14:28:38;;;;;;;36.80;25.43;;;2.90;99.90;;;;;;5052922;28;20431;-73
2022/12/15 14:31:21;;;;;;;35.33;24.40;;;2.90;99.90;;;;;;5053067;28;20532;-71
2022/12/15 14:34:10;;;;;;;41.77;29.00;;;2.80;99.90;;;;;;5085434;28;20484;-74
2022/12/15 14:36:37;;;;;;;35.80;24.43;;;2.80;99.90;;;;;;5093639;28;20410;-72
2022/12/15 14:39:10;;;;;;;35.60;24.53;;;2.70;99.90;;;;;;5096465;28;20404;-73
2022/12/15 14:41:43;;;;;;;36.17;24.70;;;2.70;99.90;;;;;;5096518;28;20391;-71
2022/12/15 14:44:17;;;;;;;36.53;23.90;;;2.90;99.90;;;;;;5096716;28;20384;-73
2022/12/15 14:46:47;;;;;;;35.20;24.80;;;3.10;99.90;;;;;;5096430;28;20897;-72
2022/12/15 14:49:20;;;;;;;39.43;26.80;;;2.90;99.90;;;;;;5094977;28;20494;-73
2022/12/15 14:51:50;;;;;;;35.33;25.60;;;2.90;99.90;;;;;;5095446;28;20462;-71
2022/12/15 14:54:36;;;;;;;36.80;24.87;;;2.70;99.90;;;;;;5096972;28;20478;-73
2022/12/15 14:57:23;;;;;;;38.63;26.87;;;2.50;99.90;;;;;;5096532;28;20410;-72
2022/12/15 14:59:50;;;;;;;34.77;24.60;;;2.60;99.90;;;;;;5094101;28;20431;-69
2022/12/15 15:02:27;;;;;;;36.57;26.97;;;2.80;99.90;;;;;;5096041;28;20399;-72
2022/12/15 15:04:59;;;;;;;35.13;24.73;;;2.60;99.90;;;;;;5096451;28;20444;-70
2022/12/15 15:07:27;;;;;;;35.77;25.50;;;2.50;99.90;;;;;;5096707;28;20898;-69
2022/12/15 15:09:53;;;;;;;34.30;24.47;;;2.40;99.90;;;;;;5096320;28;20423;-72
2022/12/15 15:12:46;;;;;;;38.53;26.70;;;2.50;99.90;;;;;;5094241;28;20450;-71
2022/12/15 15:15:17;;;;;;;36.20;24.73;;;2.70;99.90;;;;;;5095903;28;20395;-71
2022/12/15 15:17:52;;;;;;;37.87;26.80;;;2.80;99.90;;;;;;5096346;28;20384;-71